Time;durP1;ratioP1;P1;durP2;ratioP2;P2;SDS_P1;SDS_P2;PMS_P1;PMS_P2;Temp;Humidity;BMP_temperature;BMP_pressure;BME280_temperature;BME280_humidity;BME280_pressure;Samples;Min_cycle;Max_cycle;Signal;HPM_P1;HPM_P2
2022/12/27 00:00:39;;;;;;;1.47;1.30;;;;;;;4.72;100.00;97478.25;4980794;28;20220;-70
2022/12/27 00:03:07;;;;;;;1.40;1.30;;;;;;;4.68;100.00;97485.59;5022405;28;20722;-69
2022/12/27 00:05:35;;;;;;;1.57;1.47;;;;;;;4.73;100.00;97480.75;5014822;28;20794;-71
2022/12/27 00:08:03;;;;;;;1.27;1.27;;;;;;;4.75;100.00;97491.13;5024842;28;20223;-69
2022/12/27 00:10:31;;;;;;;1.80;1.47;;;;;;;4.70;100.00;97495.94;5031181;28;20701;-71
2022/12/27 00:12:59;;;;;;;1.67;1.20;;;;;;;4.63;100.00;97498.31;5027952;28;20655;-69
2022/12/27 00:15:26;;;;;;;1.60;1.50;;;;;;;4.61;100.00;97502.88;5029566;28;20593;-70
2022/12/27 00:17:54;;;;;;;1.77;1.50;;;;;;;4.61;100.00;97508.94;4982362;28;20237;-69
2022/12/27 00:20:22;;;;;;;1.23;1.23;;;;;;;4.65;100.00;97509.50;5029168;28;20409;-70
2022/12/27 00:22:49;;;;;;;1.53;1.43;;;;;;;4.61;100.00;97508.13;5013406;28;20231;-68
2022/12/27 00:25:18;;;;;;;1.33;1.33;;;;;;;4.48;100.00;97503.13;5029423;28;20208;-70
2022/12/27 00:27:46;;;;;;;1.80;1.70;;;;;;;4.42;100.00;97520.25;5030552;28;20234;-70
2022/12/27 00:30:13;;;;;;;1.80;1.30;;;;;;;4.47;100.00;97536.41;5024964;28;20560;-69
2022/12/27 00:32:41;;;;;;;2.23;1.30;;;;;;;4.50;100.00;97548.44;4983026;28;20298;-69
2022/12/27 00:35:09;;;;;;;1.77;1.40;;;;;;;4.42;100.00;97567.47;5017903;28;20208;-70
2022/12/27 00:37:37;;;;;;;1.43;1.40;;;;;;;4.23;100.00;97598.94;5002462;28;20321;-72
2022/12/27 00:40:05;;;;;;;2.40;1.33;;;;;;;3.37;100.00;97608.72;5029988;28;20386;-72
2022/12/27 00:42:34;;;;;;;1.73;1.10;;;;;;;3.01;100.00;97623.88;5029605;28;20382;-74
2022/12/27 00:45:01;;;;;;;1.20;1.20;;;;;;;2.85;100.00;97629.53;5029142;28;20244;-72
2022/12/27 00:47:29;;;;;;;1.63;1.60;;;;;;;2.81;100.00;97638.59;4976630;28;20819;-72
2022/12/27 00:49:57;;;;;;;2.37;2.23;;;;;;;2.76;100.00;97636.34;5027264;28;20212;-74
2022/12/27 00:52:24;;;;;;;1.97;1.30;;;;;;;2.69;100.00;97635.16;5010895;28;20361;-70
2022/12/27 00:54:52;;;;;;;1.93;1.50;;;;;;;2.59;100.00;97635.91;5028885;28;20207;-71
2022/12/27 00:57:19;;;;;;;1.17;1.17;;;;;;;2.61;100.00;97638.38;5028614;28;20613;-70
2022/12/27 00:59:48;;;;;;;1.63;1.30;;;;;;;2.46;100.00;97643.06;5027936;28;20933;-70
2022/12/27 01:02:16;;;;;;;1.13;1.13;;;;;;;2.35;100.00;97650.91;5027227;28;20207;-70
2022/12/27 01:04:44;;;;;;;1.00;1.00;;;;;;;2.31;100.00;97648.56;4986889;28;20227;-71
2022/12/27 01:07:11;;;;;;;1.10;1.10;;;;;;;2.21;100.00;97665.06;5017321;28;20223;-70
2022/12/27 01:09:39;;;;;;;1.20;1.20;;;;;;;2.11;100.00;97671.03;5023068;28;20310;-72
2022/12/27 01:12:06;;;;;;;1.10;1.10;;;;;;;2.04;100.00;97669.84;5028875;28;20211;-69
2022/12/27 01:14:34;;;;;;;1.10;1.10;;;;;;;2.02;100.00;97680.38;5024491;28;20320;-72
2022/12/27 01:17:03;;;;;;;1.90;1.30;;;;;;;1.97;100.00;97666.03;5028272;28;20227;-70
2022/12/27 01:19:31;;;;;;;1.30;1.27;;;;;;;1.88;100.00;97676.22;4980045;28;20678;-71
2022/12/27 01:21:59;;;;;;;2.60;1.20;;;;;;;1.95;100.00;97687.03;4970937;28;20211;-69
2022/12/27 01:24:27;;;;;;;1.20;1.20;;;;;;;1.89;100.00;97684.91;5028883;28;20219;-70
2022/12/27 01:26:55;;;;;;;2.57;1.77;;;;;;;1.80;100.00;97696.88;5012111;28;20227;-69
2022/12/27 01:29:22;;;;;;;1.37;1.37;;;;;;;1.85;100.00;97696.53;5026987;28;20199;-69
2022/12/27 01:31:50;;;;;;;1.40;1.40;;;;;;;1.78;100.00;97688.31;5028389;28;20403;-68
2022/12/27 01:34:19;;;;;;;1.00;1.00;;;;;;;1.73;100.00;97687.84;5026512;28;20836;-70
2022/12/27 01:36:47;;;;;;;1.00;1.00;;;;;;;1.70;100.00;97698.53;4978152;28;20235;-69
2022/12/27 01:39:14;;;;;;;2.03;1.30;;;;;;;1.58;100.00;97705.50;5025200;28;20957;-68
2022/12/27 01:44:49;;;;;;;1.40;1.30;;;;;;;1.58;100.00;97714.19;5022897;28;20885;-71
2022/12/27 01:47:21;;;;;;;1.40;1.40;;;;;;;1.54;100.00;97719.72;5027499;28;20231;-70
2022/12/27 01:49:57;;;;;;;1.43;1.33;;;;;;;1.58;100.00;97723.78;5025658;28;20208;-69
2022/12/27 01:52:28;;;;;;;1.10;1.10;;;;;;;1.59;100.00;97720.22;4975486;28;20221;-71
2022/12/27 01:55:07;;;;;;;1.53;1.40;;;;;;;1.49;100.00;97727.06;5023759;28;20210;-70
2022/12/27 01:57:35;;;;;;;3.30;1.27;;;;;;;1.53;100.00;97733.75;5027475;28;20234;-70
2022/12/27 02:00:02;;;;;;;1.67;1.57;;;;;;;1.65;100.00;97718.94;5016571;28;20210;-70
2022/12/27 02:02:30;;;;;;;1.17;1.10;;;;;;;1.56;100.00;97734.34;5029877;28;20207;-70
2022/12/27 02:04:59;;;;;;;1.40;1.30;;;;;;;1.57;100.00;97741.25;5025613;28;20249;-69
2022/12/27 02:07:35;;;;;;;1.77;1.47;;;;;;;1.54;100.00;97748.47;5026310;28;20728;-70
2022/12/27 02:10:03;;;;;;;1.47;1.37;;;;;;;1.48;100.00;97746.31;4957674;28;20442;-72
2022/12/27 02:12:31;;;;;;;1.33;1.20;;;;;;;1.36;100.00;97756.72;5027145;28;20210;-70
2022/12/27 02:15:00;;;;;;;1.30;1.23;;;;;;;1.21;100.00;97758.66;5009251;28;20219;-68
2022/12/27 02:17:29;;;;;;;1.60;1.57;;;;;;;1.16;100.00;97766.00;5023841;28;20775;-71
2022/12/27 02:20:01;;;;;;;1.27;1.27;;;;;;;1.10;100.00;97782.06;5027689;28;20222;-70
2022/12/27 02:25:53;;;;;;;2.67;1.40;;;;;;;0.99;100.00;97795.91;5003189;28;20223;-70
2022/12/27 02:28:31;;;;;;;1.57;1.50;;;;;;;0.92;100.00;97799.84;5002358;28;20369;-69
2022/12/27 02:31:05;;;;;;;1.17;1.17;;;;;;;1.01;100.00;97794.81;5005162;28;20207;-69
2022/12/27 02:33:37;;;;;;;1.20;1.20;;;;;;;0.93;100.00;97796.31;5023745;28;20226;-70
2022/12/27 02:36:08;;;;;;;1.57;1.47;;;;;;;0.88;100.00;97801.88;5000663;28;20912;-69
2022/12/27 02:38:37;;;;;;;1.43;1.37;;;;;;;0.81;100.00;97814.50;5021690;28;20694;-69
2022/12/27 02:55:15;;;;;;;1.13;1.13;;;;;;;0.45;100.00;97818.69;4978389;28;20588;-71
2022/12/27 02:57:48;;;;;;;3.23;1.80;;;;;;;0.48;100.00;97825.47;5026841;28;20605;-69
2022/12/27 03:03:22;;;;;;;3.30;1.27;;;;;;;0.38;100.00;97838.31;5008579;28;20498;-69
2022/12/27 03:06:40;;;;;;;1.60;1.50;;;;;;;0.34;100.00;97831.63;5023943;28;20304;-69
2022/12/27 03:18:06;;;;;;;1.20;1.20;;;;;;;0.12;100.00;97851.28;5002307;28;20315;-70
2022/12/27 03:26:08;;;;;;;3.83;1.67;;;;;;;-0.02;100.00;97873.03;4971776;28;21535;-68
2022/12/27 03:34:34;;;;;;;2.50;1.80;;;;;;;-0.04;100.00;97891.41;5017504;28;20216;-68
2022/12/27 03:39:56;;;;;;;2.57;1.30;;;;;;;0.07;100.00;97901.13;5011541;28;20215;-69
2022/12/27 03:46:32;;;;;;;1.60;1.50;;;;;;;0.05;100.00;97903.00;4940232;28;20738;-70
2022/12/27 03:48:11;;;;;;;2.47;2.00;;;;;;;0.01;100.00;97901.53;5025634;28;20235;-70
2022/12/27 03:50:43;;;;;;;1.53;1.43;;;;;;;0.04;100.00;97909.16;5024827;28;20399;-71
2022/12/27 03:53:17;;;;;;;1.33;1.33;;;;;;;0.01;100.00;97904.13;5019598;28;20214;-69
2022/12/27 03:55:44;;;;;;;1.67;1.57;;;;;;;0.07;100.00;97905.50;5021218;28;20706;-71
2022/12/27 03:58:13;;;;;;;1.20;1.10;;;;;;;-0.02;100.00;97920.78;5009524;28;20223;-68
2022/12/27 04:00:41;;;;;;;2.10;2.00;;;;;;;-0.15;100.00;97917.31;4980856;28;20611;-69
2022/12/27 04:03:08;;;;;;;1.77;1.10;;;;;;;-0.22;100.00;97926.44;5023898;28;20239;-72
2022/12/27 04:05:36;;;;;;;1.90;1.10;;;;;;;-0.32;100.00;97929.63;5026050;28;20599;-71
2022/12/27 04:35:40;;;;;;;1.63;1.37;;;;;;;-0.81;100.00;97959.53;5023611;28;20291;-70
2022/12/27 04:38:08;;;;;;;1.17;1.10;;;;;;;-0.85;100.00;97957.22;5026295;28;20522;-71
2022/12/27 04:57:08;;;;;;;1.27;1.20;;;;;;;-1.06;100.00;97963.63;5008818;28;20232;-71
2022/12/27 05:02:22;;;;;;;1.40;1.30;;;;;;;-1.20;100.00;97964.44;4981599;28;20988;-70
2022/12/27 05:04:50;;;;;;;1.57;1.47;;;;;;;-1.27;100.00;97968.34;5026333;28;20199;-72
2022/12/27 05:15:37;;;;;;;1.43;1.20;;;;;;;-1.48;100.00;97984.25;5002885;28;20424;-72
2022/12/27 05:18:05;;;;;;;1.40;1.30;;;;;;;-1.51;100.00;97984.41;4987302;28;20227;-71
2022/12/27 05:20:33;;;;;;;1.50;1.50;;;;;;;-1.52;100.00;97993.16;5010332;28;20748;-70
2022/12/27 05:25:46;;;;;;;1.47;1.47;;;;;;;-1.51;100.00;98002.63;5027237;28;20714;-71
2022/12/27 05:28:14;;;;;;;1.33;1.33;;;;;;;-1.61;100.00;98010.09;5012519;28;20239;-68
2022/12/27 05:30:44;;;;;;;2.63;1.97;;;;;;;-1.58;100.00;98011.69;5026936;28;20380;-71
2022/12/27 05:33:11;;;;;;;2.50;2.30;;;;;;;-1.58;100.00;98011.69;4982486;28;20224;-70
2022/12/27 05:35:39;;;;;;;2.57;1.70;;;;;;;-1.62;100.00;98011.00;4969203;28;20492;-72
2022/12/27 05:38:07;;;;;;;2.00;1.90;;;;;;;-1.69;100.00;98019.28;5016152;28;20495;-70
2022/12/27 05:40:35;;;;;;;2.17;1.70;;;;;;;-1.71;100.00;98016.75;5026127;28;20425;-71
2022/12/27 05:43:03;;;;;;;3.87;2.20;;;;;;;-1.70;100.00;98012.41;5024806;28;20704;-68
2022/12/27 05:45:30;;;;;;;2.83;1.80;;;;;;;-1.70;100.00;98021.00;5027509;28;20502;-70
2022/12/27 05:47:59;;;;;;;2.37;1.50;;;;;;;-1.71;100.00;98018.50;5022684;28;20398;-69
2022/12/27 05:50:27;;;;;;;2.50;2.00;;;;;;;-1.68;100.00;98026.97;4978641;28;21748;-71
2022/12/27 05:52:55;;;;;;;1.60;1.50;;;;;;;-1.78;100.00;98028.41;5024312;28;20207;-69
2022/12/27 05:55:23;;;;;;;2.00;1.80;;;;;;;-1.83;100.00;98020.03;5022991;28;20398;-72
2022/12/27 05:57:50;;;;;;;1.70;1.60;;;;;;;-1.84;100.00;98018.38;5026949;28;20450;-69
2022/12/27 06:00:18;;;;;;;1.77;1.67;;;;;;;-1.86;100.00;98022.81;5008702;28;20570;-70
2022/12/27 06:02:46;;;;;;;1.87;1.70;;;;;;;-1.86;100.00;98028.81;5026367;28;20446;-66
2022/12/27 06:05:15;;;;;;;2.70;1.90;;;;;;;-1.91;100.00;98026.47;5023752;28;20192;-64
2022/12/27 06:07:42;;;;;;;1.70;1.60;;;;;;;-2.01;100.00;98024.50;4970050;28;20796;-66
2022/12/27 06:10:10;;;;;;;2.30;2.10;;;;;;;-2.03;100.00;98032.34;5025482;28;20436;-70
2022/12/27 06:12:38;;;;;;;2.27;1.97;;;;;;;-2.10;100.00;98036.22;5023745;28;20240;-70
2022/12/27 06:15:07;;;;;;;2.80;2.20;;;;;;;-2.17;100.00;98033.09;5011070;28;20208;-72
2022/12/27 06:17:34;;;;;;;2.20;2.10;;;;;;;-2.15;100.00;98048.59;5027653;28;20227;-73
2022/12/27 06:20:02;;;;;;;2.37;2.10;;;;;;;-2.21;100.00;98052.34;5025508;28;20446;-73
2022/12/27 06:22:31;;;;;;;1.80;1.70;;;;;;;-2.23;100.00;98062.00;4977745;28;20220;-72
2022/12/27 06:24:58;;;;;;;2.10;1.97;;;;;;;-2.21;100.00;98063.59;5025526;28;20442;-72
2022/12/27 06:27:26;;;;;;;2.10;1.67;;;;;;;-2.21;100.00;98070.53;5027640;28;20500;-73
2022/12/27 06:29:53;;;;;;;2.50;2.20;;;;;;;-2.25;100.00;98064.69;5024846;28;20588;-70
2022/12/27 06:32:21;;;;;;;2.23;1.60;;;;;;;-2.28;100.00;98059.63;5025826;28;20203;-73
2022/12/27 06:34:48;;;;;;;1.80;1.60;;;;;;;-2.20;100.00;98064.41;5027034;28;20442;-71
2022/12/27 06:37:17;;;;;;;1.73;1.60;;;;;;;-2.21;100.00;98071.38;4976292;28;20444;-71
2022/12/27 06:39:45;;;;;;;2.10;1.97;;;;;;;-2.18;100.00;98075.56;5024745;28;20914;-71
2022/12/27 06:42:13;;;;;;;3.37;2.20;;;;;;;-2.14;100.00;98074.47;5026066;28;20469;-71
2022/12/27 06:44:40;;;;;;;2.17;2.07;;;;;;;-2.08;100.00;98078.50;5029327;28;20242;-72
2022/12/27 06:47:08;;;;;;;2.73;2.60;;;;;;;-2.15;100.00;98083.19;5022349;28;20263;-73
2022/12/27 06:49:36;;;;;;;3.00;2.33;;;;;;;-2.16;100.00;98081.50;5025321;28;20212;-73
2022/12/27 06:52:03;;;;;;;2.20;2.10;;;;;;;-2.17;100.00;98081.59;4978200;28;21313;-74
2022/12/27 06:54:31;;;;;;;22.57;14.20;;;;;;;-2.08;100.00;98083.69;5023335;28;20207;-74
2022/12/27 06:57:00;;;;;;;2.87;1.90;;;;;;;-1.94;100.00;98082.97;5023496;28;20219;-73
2022/12/27 06:59:27;;;;;;;2.60;2.20;;;;;;;-1.90;100.00;98082.69;5020202;28;20417;-75
2022/12/27 07:01:55;;;;;;;2.63;2.43;;;;;;;-1.87;100.00;98081.69;5024617;28;20207;-69
2022/12/27 07:04:23;;;;;;;2.23;2.10;;;;;;;-1.85;100.00;98082.47;5025334;28;20292;-72
2022/12/27 07:06:50;;;;;;;2.20;2.10;;;;;;;-1.84;100.00;98089.31;5021710;28;20662;-69
2022/12/27 07:09:18;;;;;;;2.47;2.17;;;;;;;-1.81;100.00;98094.34;4983114;28;20211;-71
2022/12/27 07:11:45;;;;;;;6.47;3.93;;;;;;;-1.78;100.00;98090.75;5026444;28;20210;-69
2022/12/27 07:14:14;;;;;;;4.17;3.53;;;;;;;-1.66;100.00;98097.88;5025948;28;20224;-69
2022/12/27 07:16:42;;;;;;;5.03;4.27;;;;;;;-1.64;100.00;98101.22;5027262;28;20465;-69
2022/12/27 07:19:10;;;;;;;2.93;2.37;;;;;;;-1.60;100.00;98105.34;5023893;28;20776;-70
2022/12/27 07:21:37;;;;;;;2.90;2.70;;;;;;;-1.64;100.00;98096.03;5026436;28;20231;-72
2022/12/27 07:24:06;;;;;;;5.30;2.90;;;;;;;-1.64;100.00;98101.22;4980379;28;20946;-72
2022/12/27 07:26:33;;;;;;;2.40;2.20;;;;;;;-1.64;100.00;98100.41;5022301;28;20223;-72
2022/12/27 07:29:01;;;;;;;5.80;2.87;;;;;;;-1.63;100.00;98104.69;5006381;28;20203;-71
2022/12/27 07:31:32;;;;;;;2.40;2.20;;;;;;;-1.66;100.00;98113.47;5023722;28;20199;-72
2022/12/27 07:34:01;;;;;;;3.20;3.00;;;;;;;-1.66;100.00;98121.25;5020532;28;20740;-71
2022/12/27 07:36:32;;;;;;;2.90;2.70;;;;;;;-1.65;100.00;98119.53;5017893;28;20220;-72
2022/12/27 07:38:59;;;;;;;6.73;4.13;;;;;;;-1.61;100.00;98121.84;5021488;28;20214;-72
2022/12/27 07:41:27;;;;;;;3.13;2.90;;;;;;;-1.58;100.00;98128.66;4981240;28;20208;-70
2022/12/27 07:43:54;;;;;;;4.27;3.87;;;;;;;-1.54;100.00;98137.09;4965003;28;20549;-72
2022/12/27 07:46:23;;;;;;;5.53;4.30;;;;;;;-1.58;100.00;98125.19;5002050;28;20737;-71
2022/12/27 07:48:54;;;;;;;5.60;4.17;;;;;;;-1.53;100.00;98142.22;5025538;28;20204;-70
2022/12/27 07:51:23;;;;;;;4.90;4.03;;;;;;;-1.51;100.00;98136.97;5024625;28;20852;-72
2022/12/27 07:53:52;;;;;;;3.87;3.53;;;;;;;-1.51;100.00;98134.38;5011519;28;20571;-71
2022/12/27 07:56:21;;;;;;;3.23;3.03;;;;;;;-1.49;100.00;98129.91;5028188;28;20208;-72
2022/12/27 07:58:54;;;;;;;3.43;2.90;;;;;;;-1.50;100.00;98131.66;4969365;28;20225;-70
2022/12/27 08:01:23;;;;;;;5.03;3.20;;;;;;;-1.42;100.00;98138.19;5025558;28;20216;-71
2022/12/27 08:03:50;;;;;;;2.67;2.57;;;;;;;-1.41;100.00;98135.53;5031624;28;20214;-70
2022/12/27 08:06:24;;;;;;;2.10;2.00;;;;;;;-1.34;100.00;98136.00;5026658;28;20445;-72
2022/12/27 08:08:53;;;;;;;3.30;2.50;;;;;;;-1.31;100.00;98139.28;5012521;28;20596;-69
2022/12/27 08:11:20;;;;;;;4.00;3.70;;;;;;;-1.26;100.00;98145.97;5029961;28;21180;-69
2022/12/27 08:13:48;;;;;;;3.70;2.90;;;;;;;-1.25;100.00;98150.25;4974792;28;20212;-68
2022/12/27 08:16:17;;;;;;;3.43;2.80;;;;;;;-1.18;100.00;98151.59;5014161;28;20431;-68
2022/12/27 08:18:45;;;;;;;2.90;2.70;;;;;;;-1.14;100.00;98149.66;5031378;28;20202;-69
2022/12/27 08:21:13;;;;;;;3.00;2.80;;;;;;;-1.03;100.00;98152.50;5027850;28;20305;-71
2022/12/27 08:23:42;;;;;;;3.13;2.73;;;;;;;-0.95;100.00;98147.69;5015266;28;20206;-68
2022/12/27 08:26:09;;;;;;;3.17;2.97;;;;;;;-0.93;100.00;98152.81;5026733;28;20928;-71
2022/12/27 08:28:37;;;;;;;3.30;3.10;;;;;;;-0.86;100.00;98153.31;5032112;28;20324;-71
2022/12/27 08:31:06;;;;;;;5.73;3.13;;;;;;;-0.80;100.00;98158.16;4958853;28;20330;-70
2022/12/27 08:33:33;;;;;;;2.70;2.60;;;;;;;-0.72;100.00;98161.16;5029973;28;20922;-71
2022/12/27 08:36:04;;;;;;;3.10;2.80;;;;;;;-0.61;100.00;98160.53;5026847;28;20199;-65
2022/12/27 08:38:54;;;;;;;3.73;2.83;;;;;;;-0.51;100.00;98158.22;5015315;28;20618;-63
2022/12/27 08:41:22;;;;;;;3.37;3.07;;;;;;;-0.41;100.00;98161.09;5028140;28;20207;-72
2022/12/27 08:43:50;;;;;;;3.50;3.30;;;;;;;-0.37;100.00;98163.47;5001205;28;20846;-70
2022/12/27 08:46:18;;;;;;;2.43;2.30;;;;;;;-0.28;100.00;98161.22;4993624;28;20301;-71
2022/12/27 08:48:47;;;;;;;2.13;2.03;;;;;;;-0.19;100.00;98163.28;5030270;28;20774;-70
2022/12/27 08:51:15;;;;;;;2.57;2.37;;;;;;;-0.11;100.00;98161.06;5015022;28;20212;-70
2022/12/27 08:53:59;;;;;;;2.53;2.40;;;;;;;-0.01;100.00;98167.38;5027772;28;20200;-72
2022/12/27 08:56:27;;;;;;;4.70;2.40;;;;;;;0.06;100.00;98160.06;4990981;28;20224;-71
2022/12/27 08:58:54;;;;;;;2.30;2.10;;;;;;;0.12;100.00;98162.28;5029204;28;20253;-70
2022/12/27 09:01:22;;;;;;;3.67;2.17;;;;;;;0.21;100.00;98163.50;4959082;28;20690;-70
2022/12/27 09:03:49;;;;;;;2.60;2.40;;;;;;;0.32;100.00;98169.81;5032820;28;20231;-71
2022/12/27 09:06:18;;;;;;;2.40;2.23;;;;;;;0.37;100.00;98167.75;5025707;28;20211;-70
2022/12/27 09:08:47;;;;;;;2.70;2.60;;;;;;;0.45;100.00;98172.50;5032151;28;20224;-72
2022/12/27 09:11:18;;;;;;;2.50;2.30;;;;;;;0.51;100.00;98172.91;4991750;28;20234;-69
2022/12/27 09:13:46;;;;;;;3.07;2.30;;;;;;;0.57;100.00;98171.72;5031291;28;20214;-71
2022/12/27 09:16:16;;;;;;;3.07;2.87;;;;;;;0.68;100.00;98168.44;4989138;28;20217;-70
2022/12/27 09:18:44;;;;;;;3.10;2.80;;;;;;;0.74;100.00;98168.03;5030669;28;20388;-72
2022/12/27 09:21:13;;;;;;;2.93;2.73;;;;;;;0.80;100.00;98162.44;5020771;28;20209;-70
2022/12/27 09:23:41;;;;;;;2.70;2.40;;;;;;;0.89;100.00;98154.94;5000365;28;20210;-71
2022/12/27 09:26:14;;;;;;;2.60;2.50;;;;;;;0.95;100.00;98154.56;5009561;28;20219;-70
2022/12/27 09:28:43;;;;;;;3.30;2.73;;;;;;;1.09;100.00;98157.09;5006033;28;20309;-72
2022/12/27 09:31:12;;;;;;;3.83;3.03;;;;;;;1.21;100.00;98158.09;4976755;28;20219;-69
2022/12/27 09:33:40;;;;;;;2.67;2.50;;;;;;;1.37;100.00;98154.44;5014796;28;20385;-71
2022/12/27 09:36:10;;;;;;;5.03;2.87;;;;;;;1.36;100.00;98153.63;5024867;28;20203;-70
2022/12/27 09:38:38;;;;;;;4.50;2.80;;;;;;;1.40;100.00;98155.09;4985527;28;20208;-69
2022/12/27 09:41:10;;;;;;;2.40;2.20;;;;;;;1.51;100.00;98161.38;4991605;28;20614;-71
2022/12/27 09:43:41;;;;;;;2.20;2.00;;;;;;;1.62;100.00;98163.25;5008340;28;20212;-70
2022/12/27 09:46:14;;;;;;;3.23;2.30;;;;;;;1.67;100.00;98154.16;4982543;28;20774;-71
2022/12/27 09:48:41;;;;;;;2.57;2.30;;;;;;;1.77;100.00;98161.41;5005568;28;20584;-69
2022/12/27 09:51:13;;;;;;;2.07;1.77;;;;;;;1.78;100.00;98152.63;4972676;28;21013;-70
2022/12/27 09:53:46;;;;;;;2.47;2.03;;;;;;;1.80;100.00;98148.13;5007094;28;20203;-71
2022/12/27 09:56:20;;;;;;;2.63;2.43;;;;;;;1.87;100.00;98150.19;5029058;28;20503;-69
2022/12/27 09:58:50;;;;;;;2.53;2.43;;;;;;;2.06;100.00;98158.53;5012280;28;20203;-68
2022/12/27 10:01:29;;;;;;;3.17;2.70;;;;;;;2.00;100.00;98152.81;5027928;28;20394;-71
2022/12/27 10:03:57;;;;;;;3.57;2.50;;;;;;;2.09;100.00;98155.75;5023301;28;20860;-68
2022/12/27 10:06:42;;;;;;;2.90;2.70;;;;;;;2.11;100.00;98149.44;4980202;28;22138;-68
2022/12/27 10:09:28;;;;;;;2.27;2.07;;;;;;;2.10;100.00;98146.97;5007151;28;20436;-71
2022/12/27 10:12:01;;;;;;;3.20;2.90;;;;;;;2.23;100.00;98150.38;5007334;28;20212;-68
2022/12/27 10:14:41;;;;;;;2.50;2.30;;;;;;;2.19;100.00;98135.84;5008383;28;20579;-70
2022/12/27 10:17:15;;;;;;;4.00;3.00;;;;;;;2.21;100.00;98138.34;5008536;28;20388;-70
2022/12/27 10:19:47;;;;;;;4.13;3.10;;;;;;;2.37;100.00;98135.47;5028785;28;20583;-72
2022/12/27 10:22:25;;;;;;;3.33;2.77;;;;;;;2.42;100.00;98136.84;4960344;28;22787;-70
2022/12/27 10:24:55;;;;;;;4.13;2.70;;;;;;;2.35;100.00;98129.53;5023069;28;20803;-68
2022/12/27 10:27:26;;;;;;;2.57;2.37;;;;;;;2.37;100.00;98138.09;5010374;28;20726;-71
2022/12/27 10:29:55;;;;;;;2.80;2.60;;;;;;;2.47;100.00;98141.75;4999973;28;20219;-68
2022/12/27 10:32:25;;;;;;;4.57;2.60;;;;;;;2.51;100.00;98131.91;5020300;28;20720;-71
2022/12/27 10:34:55;;;;;;;2.90;2.70;;;;;;;2.67;100.00;98121.16;5028502;28;20670;-69
2022/12/27 10:37:22;;;;;;;3.67;2.73;;;;;;;2.59;100.00;98119.94;4961279;28;20519;-69
2022/12/27 10:39:50;;;;;;;2.97;2.77;;;;;;;2.57;100.00;98120.97;5026978;28;20206;-69
2022/12/27 10:42:29;;;;;;;4.30;2.30;;;;;;;2.50;100.00;98118.00;5024432;28;20624;-71
2022/12/27 10:45:27;;;;;;;5.63;2.40;;;;;;;2.62;100.00;98112.81;4977429;28;20234;-70
2022/12/27 10:47:58;;;;;;;3.40;2.93;;;;;;;2.69;100.00;98114.03;5008665;28;20660;-69
2022/12/27 10:50:28;;;;;;;4.87;2.50;;;;;;;2.96;100.00;98119.03;5026553;28;20196;-71
2022/12/27 10:52:55;;;;;;;3.00;1.90;;;;;;;3.04;100.00;98115.88;4966296;28;20207;-69
2022/12/27 10:55:35;;;;;;;2.90;2.20;;;;;;;3.15;100.00;98102.81;5025879;28;20222;-69
2022/12/27 10:58:38;;;;;;;3.53;2.57;;;;;;;3.22;100.00;98105.81;5018351;28;20581;-72
2022/12/27 11:01:06;;;;;;;2.23;2.00;;;;;;;3.27;100.00;98098.44;4990427;28;20211;-71
2022/12/27 11:03:35;;;;;;;2.33;2.17;;;;;;;3.21;100.00;98091.03;5007101;28;21240;-70
2022/12/27 11:06:07;;;;;;;4.23;2.70;;;;;;;3.12;100.00;98094.34;5008086;28;20212;-69
2022/12/27 11:08:35;;;;;;;2.53;2.33;;;;;;;3.04;100.00;98100.16;4973806;28;20223;-71
2022/12/27 11:11:13;;;;;;;3.60;2.50;;;;;;;3.14;100.00;98108.16;5025465;28;20455;-71
2022/12/27 11:13:41;;;;;;;3.57;2.10;;;;;;;3.30;100.00;98098.19;4996689;28;20221;-71
2022/12/27 11:16:14;;;;;;;2.50;1.97;;;;;;;3.45;100.00;98105.88;5024511;28;20601;-67
2022/12/27 11:18:47;;;;;;;2.97;2.37;;;;;;;3.57;100.00;98106.69;5004422;28;20216;-72
2022/12/27 11:21:15;;;;;;;4.23;1.70;;;;;;;3.56;100.00;98097.19;5004118;28;20383;-69
2022/12/27 11:23:55;;;;;;;2.80;1.53;;;;;;;3.73;100.00;98096.72;4985689;28;20516;-70
2022/12/27 11:26:26;;;;;;;2.10;2.00;;;;;;;3.80;100.00;98102.34;5014019;28;20207;-67
2022/12/27 11:28:54;;;;;;;2.77;1.70;;;;;;;3.98;100.00;98094.00;5012049;28;20270;-70
2022/12/27 11:31:34;;;;;;;1.97;1.87;;;;;;;4.32;100.00;98091.34;5024508;28;20218;-69
2022/12/27 11:34:05;;;;;;;2.10;1.70;;;;;;;4.27;98.65;98083.81;5010738;28;20670;-71
2022/12/27 11:36:36;;;;;;;1.70;1.60;;;;;;;4.12;98.05;98078.00;5009372;28;20224;-71
2022/12/27 11:39:04;;;;;;;3.37;2.03;;;;;;;3.84;97.29;98081.94;4966782;28;20335;-71
2022/12/27 11:41:37;;;;;;;2.03;1.93;;;;;;;3.63;99.39;98077.44;5023533;28;20416;-72
2022/12/27 11:44:13;;;;;;;2.00;1.80;;;;;;;3.50;100.00;98077.53;5014935;28;20203;-70
2022/12/27 11:46:42;;;;;;;2.37;1.77;;;;;;;3.41;100.00;98071.19;5012597;28;20222;-70
2022/12/27 11:49:20;;;;;;;1.93;1.70;;;;;;;3.38;100.00;98081.91;5010551;28;20646;-71
2022/12/27 11:52:21;;;;;;;2.33;2.07;;;;;;;3.53;100.00;98072.06;5006157;28;20445;-71
2022/12/27 11:55:15;;;;;;;4.40;2.23;;;;;;;4.06;100.00;98070.63;4919900;28;20761;-71
2022/12/27 11:58:08;;;;;;;2.80;2.10;;;;;;;4.47;100.00;98070.91;5025531;28;20212;-70
2022/12/27 12:00:42;;;;;;;2.40;2.20;;;;;;;4.39;96.66;98065.47;5016282;28;20212;-71
2022/12/27 12:03:41;;;;;;;4.00;2.17;;;;;;;4.43;98.94;98059.00;5025569;28;20687;-69
2022/12/27 12:06:14;;;;;;;2.87;2.50;;;;;;;4.46;95.15;98056.13;5016120;28;20831;-68
2022/12/27 12:09:17;;;;;;;2.27;2.17;;;;;;;4.39;93.31;98060.22;5028801;28;20322;-71
2022/12/27 12:11:58;;;;;;;3.10;1.90;;;;;;;4.35;94.09;98067.47;5012269;28;20417;-70
2022/12/27 12:14:46;;;;;;;3.80;2.33;;;;;;;4.30;94.56;98061.78;4978850;28;20215;-72
2022/12/27 12:17:34;;;;;;;4.33;3.23;;;;;;;4.11;94.59;98062.41;5002263;28;20216;-73
2022/12/27 12:20:17;;;;;;;6.50;1.47;;;;;;;4.16;94.67;98053.19;5011458;28;20208;-69
2022/12/27 12:23:03;;;;;;;2.20;1.63;;;;;;;4.29;93.05;98052.25;5020079;28;20208;-73
2022/12/27 12:26:01;;;;;;;2.17;1.47;;;;;;;4.39;92.31;98054.97;5008768;28;20211;-69
2022/12/27 12:28:55;;;;;;;2.90;1.67;;;;;;;4.45;91.59;98051.84;5024170;28;20327;-71
2022/12/27 12:31:43;;;;;;;2.83;1.90;;;;;;;4.39;91.00;98054.97;4999349;28;20211;-71
2022/12/27 12:34:26;;;;;;;1.87;1.77;;;;;;;4.25;90.62;98056.06;4987995;28;20215;-71
2022/12/27 12:37:09;;;;;;;3.20;2.00;;;;;;;4.33;91.16;98051.84;5024076;28;20480;-71
2022/12/27 12:39:51;;;;;;;3.13;1.60;;;;;;;4.58;90.92;98044.63;5008873;28;20207;-69
2022/12/27 12:42:21;;;;;;;2.63;2.10;;;;;;;4.41;89.77;98046.00;5009097;28;20452;-72
2022/12/27 12:45:28;;;;;;;3.77;1.70;;;;;;;4.39;89.99;98039.22;4965898;28;20784;-71
2022/12/27 12:48:11;;;;;;;5.17;1.97;;;;;;;4.33;90.10;98033.47;4994376;28;20520;-70
2022/12/27 12:50:52;;;;;;;2.03;1.90;;;;;;;4.37;90.68;98031.47;5023847;28;20598;-68
2022/12/27 12:53:32;;;;;;;1.70;1.60;;;;;;;4.32;91.50;98029.19;5027376;28;20214;-69
2022/12/27 12:56:13;;;;;;;2.27;1.87;;;;;;;4.32;92.88;98025.75;5012580;28;20561;-71
2022/12/27 12:58:50;;;;;;;6.30;2.00;;;;;;;4.23;91.75;98029.13;5010641;28;20411;-70
2022/12/27 13:01:30;;;;;;;1.90;1.80;;;;;;;4.18;92.37;98018.97;4987502;28;20604;-68
2022/12/27 13:04:08;;;;;;;2.13;1.70;;;;;;;4.20;92.15;98019.69;5031493;28;20328;-70
2022/12/27 13:06:47;;;;;;;1.83;1.40;;;;;;;4.24;92.42;98021.13;5025349;28;20223;-68
2022/12/27 13:09:24;;;;;;;3.03;1.70;;;;;;;4.26;92.62;98031.50;5032135;28;20593;-70
2022/12/27 13:11:58;;;;;;;4.53;1.90;;;;;;;4.17;92.35;98027.81;4974308;28;20211;-71
2022/12/27 13:14:41;;;;;;;3.27;1.47;;;;;;;4.17;93.13;98038.31;5025773;28;20208;-68
2022/12/27 13:17:15;;;;;;;4.03;1.90;;;;;;;4.19;93.40;98031.16;4986719;28;20227;-71
2022/12/27 13:19:55;;;;;;;3.70;1.90;;;;;;;4.30;92.53;98025.03;5019065;28;20556;-71
2022/12/27 13:22:34;;;;;;;3.13;2.40;;;;;;;4.31;92.45;98030.16;5022412;28;20685;-70
2022/12/27 13:25:15;;;;;;;2.60;2.40;;;;;;;4.46;91.21;98022.00;5026128;28;20204;-70
2022/12/27 13:27:53;;;;;;;2.00;1.77;;;;;;;4.48;90.14;98023.53;5010176;28;21161;-69
2022/12/27 13:30:22;;;;;;;5.07;1.80;;;;;;;4.31;89.93;98022.28;5024649;28;20227;-69
2022/12/27 13:33:01;;;;;;;2.23;1.73;;;;;;;4.30;89.90;98020.63;4985079;28;20753;-68
2022/12/27 13:35:37;;;;;;;2.47;1.57;;;;;;;4.31;90.37;98027.53;5025448;28;20207;-69
2022/12/27 13:38:17;;;;;;;1.60;1.50;;;;;;;4.25;90.22;98025.41;5028060;28;20590;-70
2022/12/27 13:41:21;;;;;;;1.90;1.80;;;;;;;4.28;91.47;98033.03;5025690;28;20203;-68